Currently 72°F in San Jacinto, California, USA
72°F
80°F / 72°F
calm
0.00"
Sunday, August 14, 2022 5:27 AM PDT

San Jacinto, California Weather Summary
Last 36 Hours

Temperature Winds Hourly Humidity Dewpoint
Time Report Norm Report Norm Max Gusts Precip. Rpt. Norm Rpt. Norm Pressure
1Sun 05:27 AM  72.1°F  66°F  calm  calm  none  0.00"  52%  63%  53°F  52°F  29.87"
3Sun 05:25 AM  72.1°F  66°F  calm  calm  none  ----  52%  63%  53°F  52°F  29.87"
Sun 05:00 AM  72.9°F  66°F  calm  calm  none  0.00"  49%  62%  52°F  52°F  29.87"
Sun 04:00 AM  74.8°F  67°F  calm  calm  none  0.00"  53%  61%  56°F  53°F  29.87"
Sun 03:00 AM  75.7°F  68°F  calm  calm  none  0.00"  52%  60%  56°F  53°F  29.87"
Sun 02:00 AM  77.5°F  70°F  calm  calm  none  0.00"  53%  58%  58°F  54°F  29.88"
Sun 01:00 AM  78.8°F  71°F  calm  calm  none  0.00"  48%  57%  57°F  54°F  29.89"
2Sun 12:01 AM  79.9°F  73°F  calm  calm  none  0.00"  44%  54%  55°F  55°F  29.90"
Sat 11:00 PM  82.0°F  74°F  calm  calm  none  0.00"  41%  51%  55°F  54°F  29.89"
Sat 10:00 PM  84.4°F  76°F  calm  calm  none  0.00"  40%  47%  57°F  54°F  29.89"
Sat 09:00 PM  85.8°F  78°F  calm  1 mph  none  0.00"  40%  42%  58°F  53°F  29.89"
Sat 08:00 PM  88.2°F  82°F  calm  2 mph  3 mph  0.00"  36%  37%  57°F  52°F  29.86"
Sat 07:00 PM  91.2°F  87°F  calm  3 mph  7 mph  0.00"  33%  30%  57°F  51°F  29.84"
Sat 06:00 PM  94.6°F  91°F  calm  5 mph  14 mph  0.00"  30%  26%  57°F  50°F  29.82"
Sat 05:00 PM  96.1°F  93°F  1 mph SW  5 mph  17 mph  0.00"  29%  24%  58°F  50°F  29.82"
Sat 04:00 PM  99.0°F  95°F  3 mph SW  5 mph  16 mph  0.00"  27%  22%  58°F  49°F  29.81"
Sat 03:00 PM  100.8°F  95°F  calm  4 mph  8 mph  0.00"  26%  20%  59°F  47°F  29.82"
Sat 02:00 PM  101.5°F  94°F  calm  3 mph  14 mph  0.00"  24%  20%  57°F  46°F  29.83"
Sat 01:00 PM  100.9°F  93°F  calm  3 mph  3 mph  0.00"  25%  22%  58°F  47°F  29.84"
Sat 12:00 PM  98.8°F  89°F  calm  2 mph  3 mph  0.00"  27%  27%  58°F  50°F  29.87"
Sat 11:00 AM  95.5°F  85°F  calm  1 mph  none  0.00"  30%  32%  58°F  51°F  29.89"
Sat 10:00 AM  90.7°F  80°F  calm  1 mph  none  0.00"  36%  40%  59°F  53°F  29.90"
Sat 09:00 AM  86.5°F  75°F  calm  calm  none  0.00"  34%  49%  54°F  54°F  29.90"
Sat 08:00 AM  80.1°F  70°F  calm  calm  none  0.00"  33%  56%  47°F  53°F  29.90"
Sat 07:00 AM  75.6°F  65°F  calm  calm  none  0.00"  39%  63%  48°F  52°F  29.89"
Sat 06:00 AM  75.0°F  65°F  calm  calm  none  0.00"  39%  64%  47°F  52°F  29.88"
Sat 05:00 AM  75.6°F  66°F  calm  calm  none  0.00"  37%  63%  47°F  52°F  29.88"
Sat 04:00 AM  77.2°F  67°F  calm  calm  none  0.00"  33%  62%  45°F  53°F  29.88"
Sat 03:00 AM  77.7°F  68°F  calm  calm  none  0.00"  32%  60%  44°F  53°F  29.90"
Sat 02:00 AM  79.2°F  69°F  calm  calm  none  0.00"  31%  58%  45°F  54°F  29.88"
Sat 01:00 AM  80.6°F  71°F  calm  calm  none  0.00"  30%  57%  45°F  54°F  29.89"
Sat 12:01 AM  82.9°F  72°F  calm  calm  none  0.00"  27%  54%  44°F  54°F  29.89"
Fri 11:00 PM  83.8°F  74°F  calm  calm  none  0.00"  24%  51%  42°F  54°F  29.90"
Fri 10:00 PM  84.4°F  76°F  calm  1 mph  none  0.00"  25%  47%  43°F  54°F  29.89"
Fri 09:00 PM  85.8°F  78°F  calm  1 mph  none  0.00"  28%  42%  48°F  53°F  29.86"
Fri 08:00 PM  89.1°F  82°F  calm  2 mph  none  0.00"  22%  37%  44°F  52°F  29.85"
Fri 07:00 PM  91.9°F  86°F  calm  3 mph  8 mph  0.00"  20%  30%  44°F  50°F  29.83"
Fri 06:00 PM  94.5°F  90°F  2 mph SW  5 mph  15 mph  0.00"  22%  26%  49°F  50°F  29.80"

  1. Current weather data. No green row appears if the current weather data is also the high or low for the current day.
  2. High temperature for the current day.
  3. Low temperature for the current day.

The San Jacinto, California weather pages are a service of WeatherCurrents. San Jacinto is located in the heart of the San Jacinto Valley, near Hemet, the Soboba Casino, and at the foot of the San Jacinto Mountains.
Copyright ©2022  WeatherCurrents. All rights reserved. - Submit questions and comments - Privacy Policy

This page automatically refreshes every 10 minutes.